PWSweather.com
Personal Weather Stations
Station Observations
DAVIS2016
WorthingGB

WorthingGB

Lat: 50.8130266, Lon: -0.3832443000000012

Elevation: 34.8

Station Type: davis vantage vue 6250

High Low Average
Temperature 56.6°F13.7°F 42.7°F5.9°F 50.7°F10.4°F
Dew Point 50.4°F10.2°F 38.0°F3.3°F 41.5°F5.3°F
Winds 9.0 mph -14.5 mph - Calm Calm 3.6 mph 5.8 mph
Wind Gusts 21.0 mph33.8 mph -- 10.1 mph16.3 mph
Humidity 89% 53% 71%
Pressure 30.64 in1037.60 in 30.39 in1029.10 in -
Precipitation 0.08 in2.00 in - -
Hour Temp Dew Point Humidity Winds Wind Gusts Pressure Precip Precip Rate Daily Precip Total
12:00 AM 54.5°F12.5°C 50.4°F10.2°C 86% 7.0 mph N11.3 kmh N 17.0 mph27.4 kmh 30.39 in1029.1 mb 0.00 in0.0 mm 0.00 in0.0 mm 0.00 in0.0 mm
12:15 AM 54.1°F12.3°C 50.0°F10.0°C 86% 6.0 mph N9.7 kmh N 18.0 mph29.0 kmh 30.40 in1029.5 mb 0.00 in0.0 mm 0.00 in0.0 mm 0.00 in0.0 mm
12:30 AM 53.4°F11.9°C 49.9°F9.9°C 88% 5.0 mph N8.0 kmh N 17.0 mph27.4 kmh 30.40 in1029.5 mb 0.02 in0.5 mm 0.08 in2.0 mm 0.02 in0.5 mm
12:45 AM 53.1°F11.7°C 49.9°F9.9°C 89% 3.0 mph NE4.8 kmh NE 12.0 mph19.3 kmh 30.40 in1029.5 mb 0.02 in0.5 mm 0.00 in0.0 mm 0.02 in0.5 mm
01:00 AM 53.0°F11.7°C 49.8°F9.9°C 89% 5.0 mph N8.0 kmh N 21.0 mph33.8 kmh 30.41 in1029.8 mb 0.02 in0.5 mm 0.00 in0.0 mm 0.02 in0.5 mm
01:15 AM 53.0°F11.7°C 49.5°F9.7°C 88% 4.0 mph N6.4 kmh N 13.0 mph20.9 kmh 30.41 in1029.8 mb 0.02 in0.5 mm 0.00 in0.0 mm 0.02 in0.5 mm
01:30 AM 53.2°F11.8°C 49.4°F9.7°C 87% 3.0 mph NNE4.8 kmh NNE 11.0 mph17.7 kmh 30.42 in1030.1 mb 0.00 in0.0 mm 0.00 in0.0 mm 0.02 in0.5 mm
01:45 AM 53.3°F11.8°C 49.2°F9.6°C 86% 3.0 mph N4.8 kmh N 10.0 mph16.1 kmh 30.43 in1030.5 mb 0.00 in0.0 mm 0.00 in0.0 mm 0.02 in0.5 mm
02:00 AM 53.4°F11.9°C 49.0°F9.4°C 85% 1.0 mph NE1.6 kmh NE 4.0 mph6.4 kmh 30.43 in1030.5 mb 0.00 in0.0 mm 0.00 in0.0 mm 0.02 in0.5 mm
02:15 AM 53.5°F11.9°C 48.8°F9.3°C 84% 4.0 mph N6.4 kmh N 16.0 mph25.7 kmh 30.43 in1030.5 mb 0.00 in0.0 mm 0.00 in0.0 mm 0.02 in0.5 mm
02:30 AM 53.6°F12.0°C 48.6°F9.2°C 83% 5.0 mph N8.0 kmh N 12.0 mph19.3 kmh 30.44 in1030.8 mb 0.00 in0.0 mm 0.00 in0.0 mm 0.02 in0.5 mm
02:45 AM 53.6°F12.0°C 48.6°F9.2°C 83% 5.0 mph N8.0 kmh N 14.0 mph22.5 kmh 30.44 in1030.8 mb 0.00 in0.0 mm 0.00 in0.0 mm 0.02 in0.5 mm
03:00 AM 53.6°F12.0°C 48.6°F9.2°C 83% 4.0 mph N6.4 kmh N 15.0 mph24.1 kmh 30.44 in1030.8 mb 0.00 in0.0 mm 0.00 in0.0 mm 0.02 in0.5 mm
03:15 AM 53.5°F11.9°C 48.1°F8.9°C 82% 5.0 mph N8.0 kmh N 13.0 mph20.9 kmh 30.45 in1031.2 mb 0.00 in0.0 mm 0.00 in0.0 mm 0.02 in0.5 mm
03:30 AM 53.3°F11.8°C 47.9°F8.8°C 82% 5.0 mph N8.0 kmh N 13.0 mph20.9 kmh 30.46 in1031.5 mb 0.00 in0.0 mm 0.00 in0.0 mm 0.02 in0.5 mm
03:45 AM 52.9°F11.6°C 47.2°F8.4°C 81% 7.0 mph N11.3 kmh N 17.0 mph27.4 kmh 30.46 in1031.5 mb 0.00 in0.0 mm 0.00 in0.0 mm 0.02 in0.5 mm
04:00 AM 52.7°F11.5°C 46.4°F8.0°C 79% 6.0 mph N9.7 kmh N 17.0 mph27.4 kmh 30.47 in1031.8 mb 0.00 in0.0 mm 0.00 in0.0 mm 0.02 in0.5 mm
04:15 AM 52.2°F11.2°C 44.9°F7.2°C 76% 9.0 mph N14.5 kmh N 19.0 mph30.6 kmh 30.48 in1032.2 mb 0.00 in0.0 mm 0.00 in0.0 mm 0.02 in0.5 mm
04:30 AM 51.3°F10.7°C 44.7°F7.1°C 78% 6.0 mph N9.7 kmh N 17.0 mph27.4 kmh 30.48 in1032.2 mb 0.00 in0.0 mm 0.00 in0.0 mm 0.02 in0.5 mm
04:45 AM 50.4°F10.2°C 43.1°F6.2°C 76% 7.0 mph N11.3 kmh N 14.0 mph22.5 kmh 30.49 in1032.5 mb 0.00 in0.0 mm 0.00 in0.0 mm 0.02 in0.5 mm
05:00 AM 49.5°F9.7°C 41.9°F5.5°C 75% 5.0 mph N8.0 kmh N 15.0 mph24.1 kmh 30.50 in1032.8 mb 0.00 in0.0 mm 0.00 in0.0 mm 0.02 in0.5 mm
05:15 AM 48.8°F9.3°C 40.9°F4.9°C 74% 7.0 mph N11.3 kmh N 16.0 mph25.7 kmh 30.50 in1032.8 mb 0.00 in0.0 mm 0.00 in0.0 mm 0.02 in0.5 mm
05:30 AM 48.3°F9.1°C 40.4°F4.7°C 74% 8.0 mph N12.9 kmh N 19.0 mph30.6 kmh 30.51 in1033.2 mb 0.00 in0.0 mm 0.00 in0.0 mm 0.02 in0.5 mm
05:45 AM 47.6°F8.7°C 39.7°F4.3°C 74% 6.0 mph N9.7 kmh N 13.0 mph20.9 kmh 30.51 in1033.2 mb 0.00 in0.0 mm 0.00 in0.0 mm 0.02 in0.5 mm
06:00 AM 47.0°F8.3°C 39.5°F4.2°C 75% 4.0 mph N6.4 kmh N 14.0 mph22.5 kmh 30.52 in1033.5 mb 0.00 in0.0 mm 0.00 in0.0 mm 0.02 in0.5 mm
06:15 AM 46.6°F8.1°C 39.4°F4.1°C 76% 4.0 mph N6.4 kmh N 15.0 mph24.1 kmh 30.53 in1033.9 mb 0.00 in0.0 mm 0.00 in0.0 mm 0.02 in0.5 mm
06:30 AM 46.4°F8.0°C 39.2°F4.0°C 76% 4.0 mph N6.4 kmh N 12.0 mph19.3 kmh 30.53 in1033.9 mb 0.00 in0.0 mm 0.00 in0.0 mm 0.02 in0.5 mm
06:45 AM 46.2°F7.9°C 39.4°F4.1°C 77% 4.0 mph N6.4 kmh N 10.0 mph16.1 kmh 30.54 in1034.2 mb 0.00 in0.0 mm 0.00 in0.0 mm 0.02 in0.5 mm
07:00 AM 46.4°F8.0°C 39.6°F4.2°C 77% 5.0 mph N8.0 kmh N 13.0 mph20.9 kmh 30.55 in1034.5 mb 0.00 in0.0 mm 0.00 in0.0 mm 0.02 in0.5 mm
07:15 AM 46.6°F8.1°C 39.8°F4.3°C 77% 4.0 mph N6.4 kmh N 12.0 mph19.3 kmh 30.55 in1034.5 mb 0.00 in0.0 mm 0.00 in0.0 mm 0.02 in0.5 mm
07:30 AM 47.0°F8.3°C 39.8°F4.3°C 76% 4.0 mph N6.4 kmh N 12.0 mph19.3 kmh 30.56 in1034.9 mb 0.00 in0.0 mm 0.00 in0.0 mm 0.02 in0.5 mm
07:45 AM 47.5°F8.6°C 40.0°F4.4°C 75% 4.0 mph NNE6.4 kmh NNE 14.0 mph22.5 kmh 30.57 in1035.2 mb 0.00 in0.0 mm 0.00 in0.0 mm 0.02 in0.5 mm
08:00 AM 48.1°F8.9°C 39.9°F4.4°C 73% 3.0 mph N4.8 kmh N 11.0 mph17.7 kmh 30.58 in1035.6 mb 0.00 in0.0 mm 0.00 in0.0 mm 0.02 in0.5 mm
08:15 AM 48.6°F9.2°C 40.0°F4.4°C 72% 4.0 mph NNE6.4 kmh NNE 11.0 mph17.7 kmh 30.59 in1035.9 mb 0.00 in0.0 mm 0.00 in0.0 mm 0.02 in0.5 mm
08:30 AM 49.5°F9.7°C 40.8°F4.9°C 72% 2.0 mph NE3.2 kmh NE 8.0 mph12.9 kmh 30.59 in1035.9 mb 0.00 in0.0 mm 0.00 in0.0 mm 0.02 in0.5 mm
08:45 AM 50.0°F10.0°C 40.6°F4.8°C 70% 3.0 mph NNE4.8 kmh NNE 14.0 mph22.5 kmh 30.60 in1036.2 mb 0.00 in0.0 mm 0.00 in0.0 mm 0.02 in0.5 mm
09:00 AM 50.5°F10.3°C 40.3°F4.6°C 68% 6.0 mph N9.7 kmh N 16.0 mph25.7 kmh 30.60 in1036.2 mb 0.00 in0.0 mm 0.00 in0.0 mm 0.02 in0.5 mm
09:15 AM 51.0°F10.6°C 40.8°F4.9°C 68% 7.0 mph NNE11.3 kmh NNE 17.0 mph27.4 kmh 30.60 in1036.2 mb 0.00 in0.0 mm 0.00 in0.0 mm 0.02 in0.5 mm
09:30 AM 51.6°F10.9°C 40.6°F4.8°C 66% 7.0 mph NNE11.3 kmh NNE 13.0 mph20.9 kmh 30.59 in1035.9 mb 0.00 in0.0 mm 0.00 in0.0 mm 0.02 in0.5 mm
09:45 AM 52.1°F11.2°C 40.3°F4.6°C 64% 7.0 mph N11.3 kmh N 18.0 mph29.0 kmh 30.59 in1035.9 mb 0.00 in0.0 mm 0.00 in0.0 mm 0.02 in0.5 mm
10:00 AM 52.2°F11.2°C 39.6°F4.2°C 62% 9.0 mph NNE14.5 kmh NNE 20.0 mph32.2 kmh 30.59 in1035.9 mb 0.00 in0.0 mm 0.00 in0.0 mm 0.02 in0.5 mm
10:15 AM 53.0°F11.7°C 39.9°F4.4°C 61% 7.0 mph NNE11.3 kmh NNE 17.0 mph27.4 kmh 30.59 in1035.9 mb 0.00 in0.0 mm 0.00 in0.0 mm 0.02 in0.5 mm
10:30 AM 53.6°F12.0°C 40.0°F4.4°C 60% 6.0 mph N9.7 kmh N 15.0 mph24.1 kmh 30.59 in1035.9 mb 0.00 in0.0 mm 0.00 in0.0 mm 0.02 in0.5 mm
10:45 AM 53.8°F12.1°C 39.4°F4.1°C 58% 7.0 mph N11.3 kmh N 17.0 mph27.4 kmh 30.59 in1035.9 mb 0.00 in0.0 mm 0.00 in0.0 mm 0.02 in0.5 mm
11:00 AM 54.0°F12.2°C 39.1°F3.9°C 57% 9.0 mph NNE14.5 kmh NNE 17.0 mph27.4 kmh 30.59 in1035.9 mb 0.00 in0.0 mm 0.00 in0.0 mm 0.02 in0.5 mm
11:15 AM 54.4°F12.4°C 39.9°F4.4°C 58% 7.0 mph NNE11.3 kmh NNE 13.0 mph20.9 kmh 30.60 in1036.2 mb 0.00 in0.0 mm 0.00 in0.0 mm 0.02 in0.5 mm
11:30 AM 54.8°F12.7°C 38.9°F3.8°C 55% 7.0 mph NE11.3 kmh NE 18.0 mph29.0 kmh 30.60 in1036.2 mb 0.00 in0.0 mm 0.00 in0.0 mm 0.02 in0.5 mm
11:45 AM 55.3°F12.9°C 38.9°F3.8°C 54% 7.0 mph NNE11.3 kmh NNE 16.0 mph25.7 kmh 30.60 in1036.2 mb 0.00 in0.0 mm 0.00 in0.0 mm 0.02 in0.5 mm
12:00 PM 55.4°F13.0°C 38.5°F3.6°C 53% 7.0 mph NE11.3 kmh NE 15.0 mph24.1 kmh 30.60 in1036.2 mb 0.00 in0.0 mm 0.00 in0.0 mm 0.02 in0.5 mm
12:15 PM 55.6°F13.1°C 39.2°F4.0°C 54% 6.0 mph NNE9.7 kmh NNE 14.0 mph22.5 kmh 30.60 in1036.2 mb 0.00 in0.0 mm 0.00 in0.0 mm 0.02 in0.5 mm
12:30 PM 55.7°F13.2°C 39.3°F4.1°C 54% 6.0 mph NNE9.7 kmh NNE 14.0 mph22.5 kmh 30.60 in1036.2 mb 0.00 in0.0 mm 0.00 in0.0 mm 0.02 in0.5 mm
12:45 PM 55.8°F13.2°C 39.9°F4.4°C 55% 6.0 mph N9.7 kmh N 13.0 mph20.9 kmh 30.60 in1036.2 mb 0.00 in0.0 mm 0.00 in0.0 mm 0.02 in0.5 mm
01:00 PM 56.1°F13.4°C 40.1°F4.5°C 55% 6.0 mph NNE9.7 kmh NNE 14.0 mph22.5 kmh 30.60 in1036.2 mb 0.00 in0.0 mm 0.00 in0.0 mm 0.02 in0.5 mm
01:15 PM 56.0°F13.3°C 39.6°F4.2°C 54% 6.0 mph NNE9.7 kmh NNE 13.0 mph20.9 kmh 30.60 in1036.2 mb 0.00 in0.0 mm 0.00 in0.0 mm 0.02 in0.5 mm
01:30 PM 56.0°F13.3°C 39.6°F4.2°C 54% 7.0 mph NNE11.3 kmh NNE 17.0 mph27.4 kmh 30.60 in1036.2 mb 0.00 in0.0 mm 0.00 in0.0 mm 0.02 in0.5 mm
01:45 PM 56.3°F13.5°C 39.4°F4.1°C 53% 5.0 mph N8.0 kmh N 15.0 mph24.1 kmh 30.60 in1036.2 mb 0.00 in0.0 mm 0.00 in0.0 mm 0.02 in0.5 mm
02:00 PM 56.4°F13.6°C 39.5°F4.2°C 53% 6.0 mph N9.7 kmh N 14.0 mph22.5 kmh 30.60 in1036.2 mb 0.00 in0.0 mm 0.00 in0.0 mm 0.02 in0.5 mm
02:15 PM 56.4°F13.6°C 39.5°F4.2°C 53% 5.0 mph N8.0 kmh N 12.0 mph19.3 kmh 30.60 in1036.2 mb 0.00 in0.0 mm 0.00 in0.0 mm 0.02 in0.5 mm
02:30 PM 56.6°F13.7°C 39.7°F4.3°C 53% 5.0 mph N8.0 kmh N 15.0 mph24.1 kmh 30.59 in1035.9 mb 0.00 in0.0 mm 0.00 in0.0 mm 0.02 in0.5 mm
02:45 PM 56.5°F13.6°C 40.0°F4.4°C 54% 4.0 mph N6.4 kmh N 14.0 mph22.5 kmh 30.60 in1036.2 mb 0.00 in0.0 mm 0.00 in0.0 mm 0.02 in0.5 mm
03:00 PM 56.4°F13.6°C 40.0°F4.4°C 54% 5.0 mph NNE8.0 kmh NNE 11.0 mph17.7 kmh 30.60 in1036.2 mb 0.00 in0.0 mm 0.00 in0.0 mm 0.02 in0.5 mm
03:15 PM 56.5°F13.6°C 40.5°F4.7°C 55% 4.0 mph N6.4 kmh N 10.0 mph16.1 kmh 30.61 in1036.6 mb 0.00 in0.0 mm 0.00 in0.0 mm 0.02 in0.5 mm
03:30 PM 56.6°F13.7°C 40.1°F4.5°C 54% 3.0 mph N4.8 kmh N 8.0 mph12.9 kmh 30.61 in1036.6 mb 0.00 in0.0 mm 0.00 in0.0 mm 0.02 in0.5 mm
03:45 PM 56.4°F13.6°C 40.9°F4.9°C 56% 2.0 mph N3.2 kmh N 8.0 mph12.9 kmh 30.61 in1036.6 mb 0.00 in0.0 mm 0.00 in0.0 mm 0.02 in0.5 mm
04:00 PM 55.9°F13.3°C 40.4°F4.7°C 56% 3.0 mph N4.8 kmh N 8.0 mph12.9 kmh 30.60 in1036.2 mb 0.00 in0.0 mm 0.00 in0.0 mm 0.02 in0.5 mm
04:15 PM 55.6°F13.1°C 40.6°F4.8°C 57% 1.0 mph N1.6 kmh N 5.0 mph8.0 kmh 30.60 in1036.2 mb 0.00 in0.0 mm 0.00 in0.0 mm 0.02 in0.5 mm
04:30 PM 55.0°F12.8°C 40.5°F4.7°C 58% 1.0 mph N1.6 kmh N 4.0 mph6.4 kmh 30.60 in1036.2 mb 0.00 in0.0 mm 0.00 in0.0 mm 0.02 in0.5 mm
04:45 PM 54.1°F12.3°C 40.5°F4.7°C 60% 1.0 mph N1.6 kmh N 4.0 mph6.4 kmh 30.60 in1036.2 mb 0.00 in0.0 mm 0.00 in0.0 mm 0.02 in0.5 mm
05:00 PM 53.0°F11.7°C 40.3°F4.6°C 62% Calm Calm 2.0 mph3.2 kmh 30.61 in1036.6 mb 0.00 in0.0 mm 0.00 in0.0 mm 0.02 in0.5 mm
05:15 PM 52.0°F11.1°C 40.6°F4.8°C 65% Calm Calm 2.0 mph3.2 kmh 30.61 in1036.6 mb 0.00 in0.0 mm 0.00 in0.0 mm 0.02 in0.5 mm
05:30 PM 51.1°F10.6°C 40.5°F4.7°C 67% Calm Calm 3.0 mph4.8 kmh 30.61 in1036.6 mb 0.00 in0.0 mm 0.00 in0.0 mm 0.02 in0.5 mm
05:45 PM 50.2°F10.1°C 40.4°F4.7°C 69% Calm Calm 1.0 mph1.6 kmh 30.61 in1036.6 mb 0.00 in0.0 mm 0.00 in0.0 mm 0.02 in0.5 mm
06:00 PM 49.5°F9.7°C 40.1°F4.5°C 70% Calm Calm 1.0 mph1.6 kmh 30.62 in1036.9 mb 0.00 in0.0 mm 0.00 in0.0 mm 0.02 in0.5 mm
06:15 PM 49.0°F9.4°C 40.0°F4.4°C 71% Calm Calm 2.0 mph3.2 kmh 30.63 in1037.3 mb 0.00 in0.0 mm 0.00 in0.0 mm 0.02 in0.5 mm
06:30 PM 48.7°F9.3°C 40.1°F4.5°C 72% Calm Calm 2.0 mph3.2 kmh 30.63 in1037.3 mb 0.00 in0.0 mm 0.00 in0.0 mm 0.02 in0.5 mm
06:45 PM 48.1°F8.9°C 39.9°F4.4°C 73% Calm Calm 2.0 mph3.2 kmh 30.63 in1037.3 mb 0.00 in0.0 mm 0.00 in0.0 mm 0.02 in0.5 mm
07:00 PM 47.8°F8.8°C 39.9°F4.4°C 74% Calm Calm 2.0 mph3.2 kmh 30.63 in1037.3 mb 0.00 in0.0 mm 0.00 in0.0 mm 0.02 in0.5 mm
07:15 PM 47.3°F8.5°C 39.4°F4.1°C 74% Calm Calm 1.0 mph1.6 kmh 30.62 in1036.9 mb 0.00 in0.0 mm 0.00 in0.0 mm 0.02 in0.5 mm
07:30 PM 46.3°F7.9°C 39.1°F3.9°C 76% Calm Calm -- 30.62 in1036.9 mb 0.00 in0.0 mm 0.00 in0.0 mm 0.02 in0.5 mm
07:45 PM 46.3°F7.9°C 39.5°F4.2°C 77% Calm Calm 2.0 mph3.2 kmh 30.62 in1036.9 mb 0.00 in0.0 mm 0.00 in0.0 mm 0.02 in0.5 mm
08:00 PM 45.9°F7.7°C 39.4°F4.1°C 78% Calm Calm 1.0 mph1.6 kmh 30.62 in1036.9 mb 0.00 in0.0 mm 0.00 in0.0 mm 0.02 in0.5 mm
08:15 PM 45.3°F7.4°C 39.2°F4.0°C 79% Calm Calm 2.0 mph3.2 kmh 30.62 in1036.9 mb 0.00 in0.0 mm 0.00 in0.0 mm 0.02 in0.5 mm
08:30 PM 44.9°F7.2°C 39.4°F4.1°C 81% Calm Calm 1.0 mph1.6 kmh 30.63 in1037.3 mb 0.00 in0.0 mm 0.00 in0.0 mm 0.02 in0.5 mm
08:45 PM 44.5°F6.9°C 39.0°F3.9°C 81% Calm Calm 1.0 mph1.6 kmh 30.63 in1037.3 mb 0.00 in0.0 mm 0.00 in0.0 mm 0.02 in0.5 mm
09:00 PM 44.3°F6.8°C 39.2°F4.0°C 82% Calm Calm 2.0 mph3.2 kmh 30.64 in1037.6 mb 0.00 in0.0 mm 0.00 in0.0 mm 0.02 in0.5 mm
09:15 PM 44.0°F6.7°C 38.9°F3.8°C 82% Calm Calm 1.0 mph1.6 kmh 30.63 in1037.3 mb 0.00 in0.0 mm 0.00 in0.0 mm 0.02 in0.5 mm
09:30 PM 43.5°F6.4°C 38.7°F3.7°C 83% Calm Calm 1.0 mph1.6 kmh 30.62 in1036.9 mb 0.00 in0.0 mm 0.00 in0.0 mm 0.02 in0.5 mm
09:45 PM 43.2°F6.2°C 38.7°F3.7°C 84% Calm Calm 1.0 mph1.6 kmh 30.62 in1036.9 mb 0.00 in0.0 mm 0.00 in0.0 mm 0.02 in0.5 mm
10:00 PM 43.3°F6.3°C 38.8°F3.8°C 84% Calm Calm 1.0 mph1.6 kmh 30.62 in1036.9 mb 0.00 in0.0 mm 0.00 in0.0 mm 0.02 in0.5 mm
10:15 PM 43.3°F6.3°C 38.8°F3.8°C 84% Calm Calm 1.0 mph1.6 kmh 30.62 in1036.9 mb 0.00 in0.0 mm 0.00 in0.0 mm 0.02 in0.5 mm
10:30 PM 43.1°F6.2°C 38.6°F3.7°C 84% Calm Calm 1.0 mph1.6 kmh 30.62 in1036.9 mb 0.00 in0.0 mm 0.00 in0.0 mm 0.02 in0.5 mm
10:45 PM 42.9°F6.1°C 38.4°F3.6°C 84% Calm Calm 2.0 mph3.2 kmh 30.62 in1036.9 mb 0.00 in0.0 mm 0.00 in0.0 mm 0.02 in0.5 mm
11:00 PM 43.4°F6.3°C 38.6°F3.7°C 83% Calm Calm 2.0 mph3.2 kmh 30.61 in1036.6 mb 0.00 in0.0 mm 0.00 in0.0 mm 0.02 in0.5 mm
11:15 PM 42.8°F6.0°C 38.0°F3.3°C 83% Calm Calm 1.0 mph1.6 kmh 30.61 in1036.6 mb 0.00 in0.0 mm 0.00 in0.0 mm 0.02 in0.5 mm
11:30 PM 42.7°F5.9°C 38.5°F3.6°C 85% Calm Calm 2.0 mph3.2 kmh 30.60 in1036.2 mb 0.00 in0.0 mm 0.00 in0.0 mm 0.02 in0.5 mm
11:45 PM 42.8°F6.0°C 38.3°F3.5°C 84% Calm Calm 2.0 mph3.2 kmh 30.60 in1036.2 mb 0.00 in0.0 mm 0.00 in0.0 mm 0.02 in0.5 mm